Time;durP1;ratioP1;P1;durP2;ratioP2;P2;SDS_P1;SDS_P2;PMS_P1;PMS_P2;Temp;Humidity;BMP_temperature;BMP_pressure;BME280_temperature;BME280_humidity;BME280_pressure;Samples;Min_cycle;Max_cycle;Signal;HPM_P1;HPM_P2
2022/07/23 00:01:12;;;;;;;3.53;3.10;;;;;;;17.50;100.00;101769.09;5235381;28;20033;-68
2022/07/23 00:03:43;;;;;;;5.90;3.47;;;;;;;17.50;100.00;101764.63;5235425;28;20063;-68
2022/07/23 00:06:15;;;;;;;5.65;3.40;;;;;;;17.42;100.00;101769.00;5234887;28;20025;-68
2022/07/23 00:08:46;;;;;;;5.78;3.53;;;;;;;17.42;100.00;101777.78;5234188;28;20037;-69
2022/07/23 00:11:18;;;;;;;4.63;3.75;;;;;;;17.38;100.00;101776.44;5235592;28;20033;-68
2022/07/23 00:13:49;;;;;;;6.10;4.07;;;;;;;17.37;100.00;101777.41;5235906;28;20029;-68
2022/07/23 00:16:20;;;;;;;6.43;3.33;;;;;;;17.26;100.00;101767.06;5233732;28;20026;-68
2022/07/23 00:18:52;;;;;;;7.40;4.53;;;;;;;17.21;100.00;101770.16;5235469;28;20066;-68
2022/07/23 00:21:23;;;;;;;7.38;3.53;;;;;;;17.11;100.00;101774.69;5234683;28;20029;-68
2022/07/23 00:23:54;;;;;;;7.82;4.03;;;;;;;17.07;100.00;101768.03;5235008;28;20029;-68
2022/07/23 00:26:26;;;;;;;4.95;3.90;;;;;;;17.09;100.00;101768.72;5234987;28;20025;-68
2022/07/23 00:28:57;;;;;;;5.10;3.72;;;;;;;17.05;100.00;101770.00;5234273;28;20021;-69
2022/07/23 00:31:28;;;;;;;5.47;4.15;;;;;;;16.94;100.00;101770.22;5234624;28;20141;-68
2022/07/23 00:34:01;;;;;;;4.13;3.63;;;;;;;17.00;100.00;101770.44;5235580;28;20037;-68
2022/07/23 00:36:32;;;;;;;5.72;3.60;;;;;;;16.95;100.00;101763.94;5234727;28;20036;-68
2022/07/23 00:39:03;;;;;;;5.90;4.13;;;;;;;16.94;100.00;101762.28;5233811;28;20033;-68
2022/07/23 00:41:34;;;;;;;8.45;4.43;;;;;;;16.87;100.00;101769.16;5236654;28;20033;-69
2022/07/23 00:44:20;;;;;;;8.15;4.30;;;;;;;16.94;100.00;101763.09;5238565;28;20055;-68
2022/07/23 00:46:57;;;;;;;5.75;4.22;;;;;;;16.78;100.00;101758.47;5239381;28;20028;-68
2022/07/23 00:49:30;;;;;;;4.97;3.75;;;;;;;16.59;100.00;101747.94;5238739;28;20045;-68
2022/07/23 00:52:03;;;;;;;4.82;3.90;;;;;;;16.64;100.00;101764.22;5238489;28;20132;-68
2022/07/23 00:54:35;;;;;;;5.45;3.90;;;;;;;16.63;100.00;101764.34;5236619;28;20040;-68
2022/07/23 00:57:06;;;;;;;5.32;3.80;;;;;;;16.59;100.00;101765.63;5237655;28;20030;-68
2022/07/23 00:59:41;;;;;;;4.55;4.15;;;;;;;16.66;100.00;101758.78;5239074;28;20021;-68
2022/07/23 01:02:12;;;;;;;5.15;3.92;;;;;;;16.53;100.00;101769.72;5238633;28;20068;-68
2022/07/23 01:04:43;;;;;;;5.30;4.20;;;;;;;16.50;100.00;101764.72;5239198;28;20344;-68
2022/07/23 01:07:16;;;;;;;5.38;3.95;;;;;;;16.49;100.00;101765.69;5238049;28;20052;-68
2022/07/23 01:09:47;;;;;;;8.57;4.97;;;;;;;16.49;100.00;101761.22;5239310;28;20025;-69
2022/07/23 01:12:18;;;;;;;8.43;3.80;;;;;;;16.47;100.00;101757.88;5237275;28;20483;-68
2022/07/23 01:14:57;;;;;;;8.18;4.10;;;;;;;16.50;100.00;101759.41;5239320;28;20498;-68
2022/07/23 01:17:29;;;;;;;4.95;4.43;;;;;;;16.29;100.00;101752.56;5238554;28;20037;-68
2022/07/23 01:20:00;;;;;;;7.18;4.22;;;;;;;16.22;100.00;101748.81;5238773;28;20032;-68
2022/07/23 01:22:31;;;;;;;6.47;4.35;;;;;;;16.29;100.00;101751.72;5238454;28;20040;-68
2022/07/23 01:25:03;;;;;;;9.63;4.65;;;;;;;16.23;100.00;101747.84;5239776;28;20021;-68
2022/07/23 01:27:34;;;;;;;6.63;4.90;;;;;;;16.19;100.00;101759.69;5237488;28;20035;-68
2022/07/23 01:30:06;;;;;;;5.60;4.55;;;;;;;16.16;100.00;101744.09;5238405;28;20095;-68
2022/07/23 01:32:38;;;;;;;6.28;4.43;;;;;;;16.12;100.00;101747.19;5237706;28;20072;-68
2022/07/23 01:35:11;;;;;;;6.90;4.85;;;;;;;16.14;100.00;101751.38;5237936;28;20104;-68
2022/07/23 01:37:42;;;;;;;;;;;;;;;16.70;100.00;101741.63;5238671;28;20034;-68
2022/07/23 01:40:13;;;;;;;5.33;4.23;;;;;;;16.09;100.00;101744.81;5237902;28;19988;-68
2022/07/23 01:42:44;;;;;;;6.47;4.03;;;;;;;16.03;100.00;101747.06;5237781;28;20071;-68
2022/07/23 01:45:16;;;;;;;8.20;4.97;;;;;;;15.95;100.00;101740.84;5236725;28;20367;-68
2022/07/23 01:47:48;;;;;;;6.20;4.25;;;;;;;15.91;100.00;101740.31;5238240;28;20033;-68
2022/07/23 01:50:19;;;;;;;5.72;4.20;;;;;;;15.89;100.00;101738.78;5238543;28;20364;-68
2022/07/23 01:52:51;;;;;;;7.05;4.60;;;;;;;15.76;100.00;101739.91;5236532;28;20036;-68
2022/07/23 01:55:22;;;;;;;6.07;5.10;;;;;;;15.77;100.00;101741.56;5238034;28;20252;-68
2022/07/23 01:57:53;;;;;;;6.93;4.93;;;;;;;15.77;100.00;101740.75;5239050;28;21049;-68
2022/07/23 02:00:24;;;;;;;8.85;4.35;;;;;;;15.79;100.00;101739.59;5235780;28;20394;-68
2022/07/23 02:02:58;;;;;;;7.65;4.82;;;;;;;15.74;100.00;101738.38;5236717;28;20390;-68
2022/07/23 02:05:30;;;;;;;;;;;;;;;16.37;100.00;101743.06;5238305;28;20435;-68
2022/07/23 02:08:01;;;;;;;7.72;4.68;;;;;;;15.73;100.00;101737.56;5234980;28;19955;-69
2022/07/23 02:10:32;;;;;;;6.85;4.55;;;;;;;15.70;100.00;101737.00;5237957;28;20029;-69
2022/07/23 02:13:04;;;;;;;4.97;4.25;;;;;;;15.63;100.00;101741.97;5236936;28;20025;-68
2022/07/23 02:15:35;;;;;;;6.82;4.75;;;;;;;15.59;100.00;101732.66;5236825;28;20026;-69
2022/07/23 02:18:08;;;;;;;8.02;4.57;;;;;;;15.55;100.00;101733.94;5237823;28;20112;-68
2022/07/23 02:20:39;;;;;;;5.93;4.47;;;;;;;15.48;100.00;101728.38;5237679;28;20019;-69
2022/07/23 02:23:11;;;;;;;6.28;4.80;;;;;;;15.41;100.00;101721.13;5237038;28;20045;-69
2022/07/23 02:25:42;;;;;;;5.65;4.22;;;;;;;15.45;100.00;101728.63;5237843;28;20025;-68
2022/07/23 02:28:13;;;;;;;5.10;4.55;;;;;;;15.43;100.00;101729.78;5236686;28;20095;-68
2022/07/23 02:30:44;;;;;;;6.00;4.28;;;;;;;15.35;100.00;101717.28;5237360;28;20494;-68
2022/07/23 02:33:16;;;;;;;10.30;4.38;;;;;;;15.39;100.00;101731.03;5235113;28;20526;-68
2022/07/23 02:35:47;;;;;;;5.88;4.25;;;;;;;15.32;100.00;101720.19;5236070;28;20076;-68
2022/07/23 02:38:19;;;;;;;6.95;4.28;;;;;;;15.38;100.00;101724.06;5235823;28;20037;-68
2022/07/23 02:40:50;;;;;;;8.23;4.38;;;;;;;15.35;100.00;101725.19;5237224;28;20087;-68
2022/07/23 02:43:21;;;;;;;5.15;4.10;;;;;;;15.28;100.00;101726.72;5237037;28;20029;-68
2022/07/23 02:45:52;;;;;;;6.80;4.45;;;;;;;15.25;100.00;101738.38;5236714;28;20029;-68
2022/07/23 02:48:24;;;;;;;6.18;4.85;;;;;;;15.21;100.00;101733.53;5234429;28;20068;-68
2022/07/23 02:50:56;;;;;;;8.35;4.95;;;;;;;15.18;100.00;101734.63;5237248;28;20033;-68
2022/07/23 02:53:27;;;;;;;7.10;4.90;;;;;;;15.15;100.00;101741.97;5236201;28;20041;-68
2022/07/23 02:55:59;;;;;;;4.95;4.25;;;;;;;15.15;100.00;101739.34;5236135;28;20022;-68
2022/07/23 02:58:30;;;;;;;6.47;4.03;;;;;;;15.14;100.00;101735.88;5236703;28;20057;-68
2022/07/23 03:01:01;;;;;;;5.53;4.20;;;;;;;15.10;100.00;101747.69;5235656;28;20037;-68
2022/07/23 03:03:33;;;;;;;6.88;4.40;;;;;;;15.10;100.00;101747.69;5235951;28;20453;-68
2022/07/23 03:06:04;;;;;;;6.75;4.57;;;;;;;15.03;100.00;101747.38;5236557;28;20029;-68
2022/07/23 03:08:35;;;;;;;8.48;4.78;;;;;;;14.98;100.00;101751.41;5236632;28;20029;-68
2022/07/23 03:11:10;;;;;;;5.80;4.45;;;;;;;14.94;100.00;101747.38;5236229;28;20386;-69
2022/07/23 03:13:42;;;;;;;7.10;4.65;;;;;;;14.90;100.00;101744.19;5236371;28;20033;-68
2022/07/23 03:16:13;;;;;;;8.20;4.82;;;;;;;14.87;100.00;101741.81;5236405;28;20513;-68
2022/07/23 03:18:44;;;;;;;9.38;4.63;;;;;;;14.84;100.00;101742.09;5235668;28;20339;-69
2022/07/23 03:21:17;;;;;;;7.63;4.93;;;;;;;14.81;100.00;101739.72;5235242;28;20425;-68
2022/07/23 03:23:48;;;;;;;6.60;4.40;;;;;;;14.79;100.00;101750.41;5235766;28;20033;-68
2022/07/23 03:26:19;;;;;;;5.90;4.63;;;;;;;14.74;100.00;101746.53;5236605;28;20637;-68
2022/07/23 03:28:51;;;;;;;6.53;5.28;;;;;;;14.72;100.00;101749.28;5236027;28;20401;-68
2022/07/23 03:31:22;;;;;;;7.28;5.45;;;;;;;14.73;100.00;101744.84;5236001;28;20033;-69
2022/07/23 03:33:53;;;;;;;6.95;5.82;;;;;;;14.70;100.00;101756.50;5236536;28;20090;-69
2022/07/23 03:36:25;;;;;;;8.95;6.40;;;;;;;14.73;100.00;101756.22;5235309;28;20029;-67
2022/07/23 03:38:56;;;;;;;8.13;6.15;;;;;;;14.76;100.00;101761.22;5235989;28;20029;-67
2022/07/23 03:41:28;;;;;;;7.90;6.10;;;;;;;14.76;100.00;101755.94;5236027;28;20029;-67
2022/07/23 03:43:59;;;;;;;9.63;6.00;;;;;;;14.73;100.00;101756.22;5236388;28;20029;-67
2022/07/23 03:46:30;;;;;;;7.95;6.20;;;;;;;14.72;100.00;101751.09;5235479;28;20235;-67
2022/07/23 03:49:01;;;;;;;8.57;6.72;;;;;;;14.71;100.00;101752.06;5235340;28;20129;-67
2022/07/23 03:51:33;;;;;;;8.15;6.68;;;;;;;14.66;100.00;101763.03;5234076;28;20037;-67
2022/07/23 03:54:04;;;;;;;8.25;7.35;;;;;;;14.62;100.00;101755.50;5235461;28;20041;-67
2022/07/23 03:56:35;;;;;;;8.18;7.05;;;;;;;14.56;100.00;101754.25;5234331;28;20037;-67
2022/07/23 03:59:07;;;;;;;10.98;7.80;;;;;;;14.57;100.00;101761.16;5234132;28;20025;-68
2022/07/23 04:01:38;;;;;;;11.80;8.13;;;;;;;14.56;100.00;101759.50;5233206;28;20120;-67
2022/07/23 04:04:09;;;;;;;8.65;7.72;;;;;;;14.53;100.00;101757.13;5234810;28;20483;-67
2022/07/23 04:06:41;;;;;;;8.88;7.47;;;;;;;14.50;100.00;101752.94;5234588;28;20025;-67
2022/07/23 04:09:12;;;;;;;9.15;8.02;;;;;;;14.53;100.00;101765.88;5235396;28;20029;-68
2022/07/23 04:11:43;;;;;;;12.88;8.20;;;;;;;14.49;100.00;101766.25;5235280;28;20554;-67
2022/07/23 04:14:15;;;;;;;9.48;8.45;;;;;;;14.52;100.00;101766.03;5235738;28;20041;-67
2022/07/23 04:16:46;;;;;;;11.35;8.02;;;;;;;14.55;100.00;101766.59;5234391;28;20407;-67
2022/07/23 04:19:17;;;;;;;9.82;8.35;;;;;;;14.54;100.00;101777.25;5235376;28;20029;-67
2022/07/23 04:21:48;;;;;;;10.70;8.30;;;;;;;14.55;100.00;101771.03;5233659;28;20384;-67
2022/07/23 04:24:20;;;;;;;9.00;8.10;;;;;;;14.52;100.00;101776.56;5235873;28;20025;-67
2022/07/23 04:26:51;;;;;;;11.63;7.95;;;;;;;14.55;100.00;101779.78;5236201;28;20021;-67
2022/07/23 04:29:22;;;;;;;8.20;7.50;;;;;;;14.57;100.00;101775.19;5233020;28;20037;-67
2022/07/23 04:31:54;;;;;;;8.55;7.47;;;;;;;14.58;100.00;101786.56;5235523;28;20045;-67
2022/07/23 04:34:26;;;;;;;8.40;7.65;;;;;;;14.64;100.00;101788.69;5234785;28;20372;-67
2022/07/23 04:36:57;;;;;;;9.15;8.05;;;;;;;14.70;100.00;101787.31;5235302;28;20421;-67
2022/07/23 04:39:28;;;;;;;8.43;7.63;;;;;;;14.69;100.00;101783.84;5235071;28;20033;-67
2022/07/23 04:42:00;;;;;;;8.82;8.00;;;;;;;14.72;100.00;101790.66;5234446;28;20033;-67
2022/07/23 04:44:31;;;;;;;9.27;8.38;;;;;;;14.70;100.00;101792.56;5234895;28;20041;-67
2022/07/23 04:47:03;;;;;;;8.93;8.13;;;;;;;14.76;100.00;101792.88;5235341;28;20017;-68
2022/07/23 04:49:34;;;;;;;11.60;8.85;;;;;;;14.80;100.00;101793.44;5234665;28;20045;-69
2022/07/23 04:52:05;;;;;;;9.02;7.82;;;;;;;14.83;100.00;101801.94;5235885;28;20025;-67
2022/07/23 04:54:37;;;;;;;12.50;8.45;;;;;;;14.79;100.00;101795.25;5234478;28;20014;-68
2022/07/23 04:57:08;;;;;;;9.88;8.15;;;;;;;14.85;100.00;101801.81;5234723;28;20380;-68
2022/07/23 04:59:39;;;;;;;11.98;8.18;;;;;;;14.84;100.00;101795.69;5234021;28;20022;-67
2022/07/23 05:02:10;;;;;;;12.93;8.20;;;;;;;14.91;100.00;101795.16;5235428;28;20405;-67
2022/07/23 05:04:42;;;;;;;10.00;8.45;;;;;;;14.91;100.00;101797.78;5234759;28;20018;-68
2022/07/23 05:07:13;;;;;;;11.88;8.20;;;;;;;14.86;100.00;101789.47;5234095;28;20026;-68
2022/07/23 05:09:44;;;;;;;9.15;8.35;;;;;;;14.92;100.00;101797.63;5235353;28;20036;-67
2022/07/23 05:12:16;;;;;;;10.65;9.15;;;;;;;14.96;100.00;101806.13;5234129;28;20048;-68
2022/07/23 05:14:47;;;;;;;15.43;9.13;;;;;;;15.02;100.00;101806.44;5233596;28;20494;-68
2022/07/23 05:17:18;;;;;;;11.73;9.60;;;;;;;15.05;100.00;101798.25;5233280;28;20040;-68
2022/07/23 05:19:49;;;;;;;10.68;9.20;;;;;;;15.14;100.00;101795.75;5234844;28;20036;-67
2022/07/23 05:22:21;;;;;;;11.88;9.95;;;;;;;15.13;100.00;101804.66;5234965;28;20052;-68
2022/07/23 05:24:52;;;;;;;13.15;9.27;;;;;;;15.23;100.00;101806.34;5235349;28;20053;-67
2022/07/23 05:27:23;;;;;;;10.98;9.07;;;;;;;15.32;100.00;101809.94;5233896;28;20021;-68
2022/07/23 05:29:54;;;;;;;12.57;9.65;;;;;;;15.38;100.00;101813.84;5238084;28;20086;-68
2022/07/23 05:32:26;;;;;;;10.45;9.20;;;;;;;15.42;100.00;101808.16;5237884;28;20037;-68
2022/07/23 05:34:57;;;;;;;14.68;9.48;;;;;;;15.43;100.00;101809.81;5238058;28;20198;-68
2022/07/23 05:37:28;;;;;;;10.40;9.15;;;;;;;15.44;100.00;101810.66;5238324;28;20069;-68
2022/07/23 05:40:10;;;;;;;12.38;10.18;;;;;;;15.65;100.00;101816.69;5238351;28;20021;-68
2022/07/23 05:42:42;;;;;;;15.10;9.27;;;;;;;15.54;100.00;101814.97;5238595;28;20316;-68
2022/07/23 05:45:13;;;;;;;12.98;10.15;;;;;;;15.56;100.00;101818.28;5236641;28;20143;-68
2022/07/23 05:47:47;;;;;;;10.00;8.77;;;;;;;15.65;100.00;101819.31;5237376;28;20017;-67
2022/07/23 05:50:18;;;;;;;12.60;9.77;;;;;;;15.61;100.00;101809.97;5238972;28;20501;-68
2022/07/23 05:52:49;;;;;;;13.68;9.77;;;;;;;15.77;100.00;101825.28;5238108;28;20025;-68
2022/07/23 05:55:21;;;;;;;12.75;9.70;;;;;;;15.84;100.00;101831.69;5239018;28;20479;-69
2022/07/23 05:57:52;;;;;;;10.75;9.73;;;;;;;15.94;100.00;101829.84;5237251;28;20037;-69
2022/07/23 06:00:24;;;;;;;14.75;9.32;;;;;;;15.98;100.00;101836.50;5237197;28;20025;-68
2022/07/23 06:02:55;;;;;;;10.73;9.68;;;;;;;16.06;100.00;101827.88;5231399;28;20095;-69
2022/07/23 06:05:27;;;;;;;11.60;9.55;;;;;;;16.13;100.00;101839.56;5237607;28;20076;-69
2022/07/23 06:07:58;;;;;;;11.10;9.43;;;;;;;16.25;100.00;101841.09;5236926;28;20108;-69
2022/07/23 06:10:29;;;;;;;10.00;9.00;;;;;;;16.29;100.00;101847.75;5236726;28;20448;-69
2022/07/23 06:13:01;;;;;;;10.63;9.65;;;;;;;16.42;100.00;101852.72;5238533;28;20394;-69
2022/07/23 06:15:32;;;;;;;12.77;9.85;;;;;;;16.50;100.00;101849.34;5238175;28;20044;-68
2022/07/23 06:18:03;;;;;;;9.93;8.88;;;;;;;16.55;100.00;101833.88;5238100;28;20076;-68
2022/07/23 06:20:35;;;;;;;10.07;9.00;;;;;;;16.68;100.00;101844.97;5237114;28;20028;-68
2022/07/23 06:23:06;;;;;;;10.30;8.75;;;;;;;16.74;100.00;101846.22;5238035;28;20060;-68
2022/07/23 06:25:38;;;;;;;10.27;9.27;;;;;;;16.82;100.00;101843.69;5236544;28;20029;-68
2022/07/23 06:28:09;;;;;;;12.00;9.27;;;;;;;16.95;100.00;101848.66;5238036;28;20041;-68
2022/07/23 06:30:41;;;;;;;10.18;9.18;;;;;;;17.09;100.00;101848.16;5237720;28;20048;-68
2022/07/23 06:33:12;;;;;;;9.15;7.68;;;;;;;17.24;100.00;101844.03;5236317;28;20062;-68
2022/07/23 06:35:43;;;;;;;9.05;7.25;;;;;;;17.33;100.00;101838.81;5238034;28;20036;-68
2022/07/23 06:38:14;;;;;;;8.50;7.13;;;;;;;17.47;100.00;101840.94;5236924;28;20048;-69
2022/07/23 06:40:46;;;;;;;8.75;7.55;;;;;;;17.58;100.00;101851.31;5236174;28;20018;-69
2022/07/23 06:43:17;;;;;;;6.45;5.80;;;;;;;17.76;100.00;101848.66;5237433;28;20605;-69
2022/07/23 06:45:48;;;;;;;7.22;6.00;;;;;;;17.82;100.00;101847.25;5236813;28;20382;-69
2022/07/23 06:48:19;;;;;;;7.13;6.20;;;;;;;17.95;100.00;101853.78;5237192;28;20030;-69
2022/07/23 06:50:52;;;;;;;8.45;6.60;;;;;;;18.07;100.00;101853.56;5234947;28;20033;-70
2022/07/23 06:53:23;;;;;;;7.88;5.85;;;;;;;18.18;100.00;101858.59;5233014;28;20434;-69
2022/07/23 06:55:54;;;;;;;7.93;6.00;;;;;;;18.30;100.00;101857.38;5233888;28;20033;-69
2022/07/23 06:58:26;;;;;;;5.95;5.15;;;;;;;18.36;100.00;101862.03;5235116;28;20038;-69
2022/07/23 07:00:57;;;;;;;6.17;5.10;;;;;;;18.54;100.00;101853.22;5230445;28;20025;-69
2022/07/23 07:03:28;;;;;;;6.57;4.63;;;;;;;18.63;100.00;101847.75;5235950;28;20031;-69
2022/07/23 07:06:00;;;;;;;6.65;4.78;;;;;;;18.73;100.00;101847.69;5235200;28;20032;-69
2022/07/23 07:08:31;;;;;;;5.72;4.63;;;;;;;18.92;100.00;101854.56;5235910;28;20036;-69
2022/07/23 07:11:03;;;;;;;6.17;4.30;;;;;;;19.00;100.00;101857.25;5237041;28;20025;-69
2022/07/23 07:13:34;;;;;;;4.73;3.60;;;;;;;19.05;100.00;101852.28;5236630;28;20281;-69
2022/07/23 07:16:05;;;;;;;4.45;4.03;;;;;;;19.30;100.00;101849.72;5236295;28;20029;-69
2022/07/23 07:18:37;;;;;;;5.88;4.10;;;;;;;19.37;100.00;101843.56;5236383;28;20052;-69
2022/07/23 07:21:08;;;;;;;4.80;4.03;;;;;;;19.43;100.00;101850.06;5233247;28;20466;-69
2022/07/23 07:23:39;;;;;;;7.57;4.67;;;;;;;19.44;100.00;101852.56;5229946;28;20072;-70
2022/07/23 07:26:10;;;;;;;4.53;3.40;;;;;;;19.56;100.00;101857.56;5232190;28;20113;-70
2022/07/23 07:28:42;;;;;;;5.07;4.20;;;;;;;19.60;100.00;101857.06;5234159;28;20075;-70
2022/07/23 07:31:13;;;;;;;8.18;3.88;;;;;;;19.82;100.00;101863.59;5234370;28;20029;-70
2022/07/23 07:33:44;;;;;;;5.93;3.45;;;;;;;20.04;100.00;101867.41;5235283;28;20033;-70
2022/07/23 07:36:16;;;;;;;6.80;4.10;;;;;;;19.82;100.00;101870.75;5235183;28;20039;-70
2022/07/23 07:38:47;;;;;;;6.50;4.00;;;;;;;20.08;100.00;101871.41;5235522;28;20105;-70
2022/07/23 07:41:22;;;;;;;3.60;3.17;;;;;;;20.14;100.00;101865.38;5235929;28;20032;-70
2022/07/23 07:43:53;;;;;;;6.25;3.67;;;;;;;20.18;100.00;101861.41;5233617;28;20025;-70
2022/07/23 07:46:27;;;;;;;5.40;3.97;;;;;;;20.36;100.00;101866.53;5235512;28;20501;-70
2022/07/23 07:48:58;;;;;;;4.88;3.63;;;;;;;20.48;100.00;101868.84;5234369;28;20431;-70
2022/07/23 07:51:29;;;;;;;7.93;4.40;;;;;;;20.52;100.00;101867.53;5234652;28;20049;-70
2022/07/23 07:54:01;;;;;;;4.70;4.07;;;;;;;20.70;100.00;101864.66;5233689;28;20059;-70
2022/07/23 07:56:32;;;;;;;5.80;3.90;;;;;;;20.81;100.00;101864.28;5235140;28;20025;-70
2022/07/23 07:59:04;;;;;;;5.43;3.80;;;;;;;20.86;100.00;101865.41;5234155;28;20052;-70
2022/07/23 08:01:35;;;;;;;5.60;4.20;;;;;;;20.96;100.00;101867.88;5233651;28;20556;-71
2022/07/23 08:04:06;;;;;;;6.00;3.90;;;;;;;21.05;100.00;101869.47;5235913;28;20135;-71
2022/07/23 08:06:38;;;;;;;5.50;3.80;;;;;;;21.18;100.00;101868.09;5232889;28;20033;-71
2022/07/23 08:09:09;;;;;;;6.83;4.00;;;;;;;21.31;100.00;101868.34;5234633;28;20191;-71
2022/07/23 08:11:40;;;;;;;5.87;3.80;;;;;;;21.46;100.00;101866.63;5235336;28;20033;-71
2022/07/23 08:14:11;;;;;;;5.67;3.80;;;;;;;21.47;100.00;101865.59;5233989;28;20075;-71
2022/07/23 08:16:43;;;;;;;4.70;3.30;;;;;;;21.56;100.00;101867.22;5234580;28;20064;-71
2022/07/23 08:19:14;;;;;;;4.63;3.57;;;;;;;21.62;100.00;101877.16;5234910;28;20044;-71
2022/07/23 08:21:45;;;;;;;5.83;3.33;;;;;;;21.74;100.00;101874.06;5235725;28;20105;-71
2022/07/23 08:24:17;;;;;;;6.13;3.73;;;;;;;21.79;99.93;101883.22;5234177;28;20026;-71
2022/07/23 08:26:48;;;;;;;6.50;3.93;;;;;;;21.96;98.24;101885.75;5231229;28;20086;-71
2022/07/23 08:29:19;;;;;;;4.90;3.60;;;;;;;22.11;100.00;101890.09;5229633;28;20479;-70
2022/07/23 08:31:50;;;;;;;5.50;3.47;;;;;;;22.03;96.71;101884.84;5231444;28;20503;-71
2022/07/23 08:34:22;;;;;;;4.83;3.60;;;;;;;22.14;97.58;101898.81;5233365;28;20029;-71
2022/07/23 08:36:53;;;;;;;5.77;4.00;;;;;;;22.06;96.75;101900.50;5232209;28;20057;-71
2022/07/23 08:39:24;;;;;;;10.07;4.07;;;;;;;22.26;98.87;101894.69;5234473;28;20064;-71
2022/07/23 08:41:56;;;;;;;4.63;3.33;;;;;;;22.45;97.52;101893.31;5233795;28;20041;-71
2022/07/23 08:44:30;;;;;;;5.30;3.40;;;;;;;22.65;95.98;101904.28;5232447;28;20043;-71
2022/07/23 08:47:02;;;;;;;5.80;3.28;;;;;;;22.54;94.90;101902.91;5232177;28;20107;-71
2022/07/23 08:49:34;;;;;;;6.53;3.47;;;;;;;22.69;94.30;101902.91;5232598;28;20022;-71
2022/07/23 08:52:05;;;;;;;5.20;3.07;;;;;;;22.76;87.73;101898.47;5237802;23;20077;-68
2022/07/23 08:54:37;;;;;;;4.10;3.17;;;;;;;22.82;92.45;101895.91;5209350;28;20033;-68
2022/07/23 08:57:08;;;;;;;4.63;3.17;;;;;;;22.72;91.61;101892.69;5220677;28;20442;-68
2022/07/23 08:59:40;;;;;;;4.37;3.20;;;;;;;22.98;94.63;101905.59;5228049;28;20082;-69
2022/07/23 09:02:12;;;;;;;4.38;3.35;;;;;;;23.01;91.01;101910.56;5223993;28;20140;-69
2022/07/23 09:04:43;;;;;;;6.47;4.00;;;;;;;23.20;93.59;101897.63;5227149;28;20120;-69
2022/07/23 09:07:15;;;;;;;5.00;3.00;;;;;;;23.12;88.91;101889.72;5223919;28;20026;-68
2022/07/23 09:09:46;;;;;;;5.97;3.63;;;;;;;23.07;88.76;101895.66;5226091;28;20033;-68
2022/07/23 09:12:17;;;;;;;6.13;3.23;;;;;;;23.26;91.36;101891.53;5224849;28;20029;-69
2022/07/23 09:14:48;;;;;;;7.13;3.60;;;;;;;23.23;90.88;101886.56;5221983;28;20117;-69
2022/07/23 09:17:21;;;;;;;3.63;2.83;;;;;;;23.51;90.86;101884.00;5223584;28;20017;-69
2022/07/23 09:20:08;;;;;;;6.85;2.92;;;;;;;23.71;89.97;101877.00;5227057;28;20643;-69
2022/07/23 09:22:49;;;;;;;4.65;2.90;;;;;;;23.66;87.79;101879.44;5225951;28;20038;-69
2022/07/23 09:25:20;;;;;;;5.53;2.90;;;;;;;23.61;87.29;101871.13;5222406;28;20033;-69
2022/07/23 09:28:02;;;;;;;6.70;3.40;;;;;;;23.91;89.22;101874.53;5227968;28;20021;-68
2022/07/23 09:30:37;;;;;;;4.93;3.60;;;;;;;23.59;86.71;101875.00;5224559;28;20450;-68
2022/07/23 09:33:15;;;;;;;6.10;3.40;;;;;;;23.85;89.38;101879.81;5227557;28;20747;-68
2022/07/23 09:35:46;;;;;;;5.25;3.60;;;;;;;23.85;86.80;101880.63;5225312;28;20037;-68
2022/07/23 09:38:19;;;;;;;6.50;3.83;;;;;;;23.63;84.60;101893.16;5223809;28;20044;-68
2022/07/23 09:41:08;;;;;;;3.83;3.00;;;;;;;24.14;89.68;101893.03;5222848;28;20029;-68
2022/07/23 09:43:39;;;;;;;3.85;3.00;;;;;;;23.86;86.25;101886.81;5216590;28;20036;-68
2022/07/23 09:46:21;;;;;;;3.83;3.20;;;;;;;24.15;84.39;101877.78;5221578;28;20466;-68
2022/07/23 09:48:56;;;;;;;6.97;3.40;;;;;;;24.11;87.09;101892.59;5222339;28;20030;-68
2022/07/23 09:53:58;;;;;;;4.50;2.90;;;;;;;24.43;82.66;101894.69;5224972;28;20029;-68
2022/07/23 09:56:32;;;;;;;5.97;2.57;;;;;;;24.50;81.81;101897.41;5227620;28;20025;-68
2022/07/23 09:59:06;;;;;;;6.28;3.20;;;;;;;24.57;80.67;101900.97;5222555;28;20044;-68
2022/07/23 10:01:38;;;;;;;4.72;2.40;;;;;;;24.71;80.73;101901.88;5225220;28;20763;-68
2022/07/23 10:04:11;;;;;;;7.13;3.53;;;;;;;24.47;82.04;101890.63;5226220;28;20105;-68
2022/07/23 10:06:43;;;;;;;3.78;2.90;;;;;;;24.47;80.94;101897.81;5226156;28;20367;-68
2022/07/23 10:09:18;;;;;;;5.38;2.65;;;;;;;24.84;82.45;101895.75;5226875;28;20045;-68
2022/07/23 10:11:50;;;;;;;4.68;2.72;;;;;;;25.08;83.73;101897.09;5224953;28;20025;-68
2022/07/23 10:14:21;;;;;;;4.85;2.95;;;;;;;25.18;80.15;101894.88;5220944;28;20040;-69
2022/07/23 10:16:53;;;;;;;5.27;2.87;;;;;;;25.16;75.97;101900.47;5220425;28;20451;-69
2022/07/23 10:19:25;;;;;;;5.27;3.03;;;;;;;25.21;77.91;101883.75;5210416;28;20134;-68
2022/07/23 10:22:01;;;;;;;4.20;2.85;;;;;;;25.17;80.26;101880.66;5205207;28;20079;-68
2022/07/23 10:24:53;;;;;;;5.85;3.45;;;;;;;25.53;82.14;101895.59;5211132;28;20026;-68
2022/07/23 10:27:33;;;;;;;;;;;;;;;26.15;80.68;101894.44;5222552;28;20140;-68
2022/07/23 10:30:07;;;;;;;5.28;3.13;;;;;;;25.36;79.22;101899.69;5219995;28;19979;-68
2022/07/23 10:33:06;;;;;;;5.90;2.83;;;;;;;25.84;79.31;101900.44;5222516;28;20402;-67
2022/07/23 10:35:46;;;;;;;4.93;2.97;;;;;;;25.73;79.51;101903.69;5223837;28;20032;-68
2022/07/23 10:38:26;;;;;;;3.75;2.42;;;;;;;26.01;75.23;101897.31;5226508;28;20061;-67
2022/07/23 10:41:03;;;;;;;3.00;1.92;;;;;;;26.10;71.91;101899.59;5224494;28;20026;-68
2022/07/23 10:43:34;;;;;;;3.83;2.00;;;;;;;26.01;70.57;101900.84;5220286;28;20045;-68
2022/07/23 10:49:25;;;;;;;7.50;2.17;;;;;;;26.11;68.86;101895.88;5209881;28;20504;-68
2022/07/23 10:52:19;;;;;;;3.30;1.52;;;;;;;26.44;69.75;101897.69;5221693;28;20057;-68
2022/07/23 10:55:15;;;;;;;4.32;2.08;;;;;;;26.25;67.00;101896.66;5222632;28;20105;-68
2022/07/23 10:57:48;;;;;;;5.57;2.13;;;;;;;26.51;66.58;101895.00;5215495;28;20498;-67
2022/07/23 11:00:24;;;;;;;4.55;2.35;;;;;;;26.42;67.36;101897.91;5217968;28;20038;-67
2022/07/23 11:02:59;;;;;;;5.85;2.30;;;;;;;26.50;66.82;101899.56;5222532;28;20033;-67
2022/07/23 11:05:43;;;;;;;4.78;2.00;;;;;;;26.58;66.12;101898.50;5226742;28;20038;-68
2022/07/23 11:08:17;;;;;;;2.42;1.40;;;;;;;26.58;64.39;101895.81;5223237;28;20061;-67
2022/07/23 11:10:53;;;;;;;3.67;1.60;;;;;;;26.53;63.91;101896.47;5222348;28;20393;-69
2022/07/23 11:13:24;;;;;;;3.38;1.88;;;;;;;26.62;62.53;101889.81;5219169;28;20458;-68
2022/07/23 11:16:05;;;;;;;3.97;2.00;;;;;;;26.56;63.03;101889.84;5223956;28;20083;-68
2022/07/23 11:18:39;;;;;;;2.20;1.60;;;;;;;26.66;63.39;101893.72;5223919;28;20742;-68
2022/07/23 11:21:23;;;;;;;2.90;1.80;;;;;;;26.92;60.11;101892.00;5221477;28;20034;-68
2022/07/23 11:23:58;;;;;;;2.83;1.50;;;;;;;26.68;58.72;101888.16;5222549;28;20077;-67
2022/07/23 11:26:39;;;;;;;3.47;1.50;;;;;;;27.08;55.13;101886.13;5222879;28;20678;-67
2022/07/23 11:29:25;;;;;;;2.42;1.60;;;;;;;27.27;55.14;101878.19;5222586;28;20125;-67
2022/07/23 11:32:02;;;;;;;3.70;1.60;;;;;;;27.16;50.05;101883.22;5218085;28;20018;-67
2022/07/23 11:34:38;;;;;;;3.80;2.30;;;;;;;26.98;48.60;101883.06;5219852;28;20473;-67
2022/07/23 11:37:11;;;;;;;2.72;1.73;;;;;;;26.95;47.22;101888.88;5222069;28;20025;-68
2022/07/23 11:39:46;;;;;;;1.70;1.30;;;;;;;27.27;49.21;101879.00;5219147;28;20021;-68
2022/07/23 11:42:18;;;;;;;2.22;1.35;;;;;;;27.20;49.08;101878.25;5220616;28;20532;-67
2022/07/23 11:44:50;;;;;;;3.22;1.65;;;;;;;27.37;50.00;101876.69;5217771;28;20025;-67
2022/07/23 11:47:24;;;;;;;2.60;1.55;;;;;;;27.58;47.81;101875.53;5218079;28;20025;-68
2022/07/23 11:50:01;;;;;;;3.55;1.40;;;;;;;27.65;46.95;101881.69;5220757;28;20077;-68